createdAt,value
2019-03-31T00:00:25.777Z,71.90
2019-03-31T00:02:54.277Z,71.60
2019-03-31T00:05:22.741Z,73.20
2019-03-31T00:07:51.210Z,74.10
2019-03-31T00:10:19.703Z,74.90
2019-03-31T00:12:48.163Z,75.40
2019-03-31T00:15:16.697Z,75.40
2019-03-31T00:17:45.589Z,76.00
2019-03-31T00:20:14.269Z,76.00
2019-03-31T00:22:42.755Z,75.60
2019-03-31T00:25:13.263Z,74.90
2019-03-31T00:27:41.817Z,74.00
2019-03-31T00:30:10.721Z,73.50
2019-03-31T00:32:39.213Z,73.70
2019-03-31T00:35:07.988Z,74.50
2019-03-31T00:37:36.452Z,74.30
2019-03-31T00:40:06.391Z,74.00
2019-03-31T00:42:34.869Z,74.20
2019-03-31T00:45:04.238Z,75.20
2019-03-31T00:47:32.729Z,75.40
2019-03-31T00:50:01.269Z,75.80
2019-03-31T00:52:29.825Z,77.60
2019-03-31T00:54:58.377Z,77.50
2019-03-31T00:57:26.925Z,78.00
2019-03-31T00:59:55.477Z,78.70
2019-03-31T01:02:25.751Z,78.20
2019-03-31T01:04:54.287Z,77.40
2019-03-31T01:07:25.871Z,78.40
2019-03-31T01:09:56.944Z,77.90
2019-03-31T01:12:28.058Z,78.80
2019-03-31T01:14:56.683Z,78.80
2019-03-31T01:17:25.880Z,79.80
2019-03-31T01:19:57.008Z,80.10
2019-03-31T01:22:25.787Z,80.50
2019-03-31T01:24:54.497Z,80.10
2019-03-31T01:27:24.364Z,79.60
2019-03-31T01:29:53.200Z,80.70
2019-03-31T01:32:21.697Z,81.20
2019-03-31T01:34:50.206Z,82.40
2019-03-31T01:37:20.348Z,81.80
2019-03-31T01:39:49.048Z,80.60
2019-03-31T01:42:17.592Z,80.80
2019-03-31T01:44:46.060Z,81.40
2019-03-31T01:47:14.801Z,81.50
2019-03-31T01:49:43.267Z,81.10
2019-03-31T01:52:11.900Z,81.10
2019-03-31T01:54:40.463Z,80.70
2019-03-31T01:57:09.001Z,80.20
2019-03-31T01:59:37.536Z,79.70
2019-03-31T02:02:07.752Z,79.60
2019-03-31T02:04:36.207Z,79.10
2019-03-31T02:07:07.348Z,78.70
2019-03-31T02:09:35.860Z,79.10
2019-03-31T02:12:04.392Z,79.40
2019-03-31T02:14:32.924Z,79.70
2019-03-31T02:17:01.416Z,80.00
2019-03-31T02:19:29.940Z,80.50
2019-03-31T02:21:58.567Z,80.80
2019-03-31T02:24:27.080Z,80.90
2019-03-31T02:26:55.545Z,80.90
2019-03-31T02:29:24.086Z,81.30
2019-03-31T02:31:52.717Z,81.30
2019-03-31T02:34:21.274Z,81.20
2019-03-31T02:36:49.807Z,81.10
2019-03-31T02:39:18.372Z,80.80
2019-03-31T02:41:46.842Z,82.20
2019-03-31T02:44:15.318Z,81.80
2019-03-31T02:46:43.880Z,81.60
2019-03-31T02:49:12.420Z,81.60
2019-03-31T02:51:41.095Z,82.00
2019-03-31T02:54:09.802Z,82.10
2019-03-31T02:56:39.980Z,82.60
2019-03-31T02:59:08.589Z,83.20
2019-03-31T03:01:38.604Z,83.70
2019-03-31T03:04:09.503Z,83.30
2019-03-31T03:06:40.893Z,83.50
2019-03-31T03:09:09.523Z,83.50
2019-03-31T03:11:39.948Z,83.30
2019-03-31T03:14:28.620Z,83.30
2019-03-31T03:16:57.198Z,83.50
2019-03-31T03:19:36.674Z,83.30
2019-03-31T03:22:00.899Z,83.60
2019-03-31T03:24:30.670Z,83.60
2019-03-31T03:26:59.251Z,83.50
2019-03-31T03:29:36.465Z,83.50
2019-03-31T03:32:04.229Z,83.50
2019-03-31T03:34:32.746Z,84.20
2019-03-31T03:37:14.573Z,84.90
2019-03-31T03:39:53.060Z,85.50
2019-03-31T03:42:21.673Z,85.50
2019-03-31T03:44:50.245Z,85.70
2019-03-31T03:47:18.779Z,86.10
2019-03-31T03:49:52.109Z,86.40
2019-03-31T03:52:20.815Z,87.60
2019-03-31T03:55:12.380Z,86.80
2019-03-31T03:57:40.889Z,86.80
2019-03-31T04:00:20.419Z,87.10
2019-03-31T04:05:46.837Z,87.50
2019-03-31T04:08:15.307Z,88.80
2019-03-31T04:10:46.914Z,88.10
2019-03-31T04:13:15.727Z,88.40
2019-03-31T04:15:44.267Z,88.30
2019-03-31T04:18:12.809Z,88.70
2019-03-31T04:20:41.381Z,89.30
2019-03-31T04:23:09.838Z,88.70
2019-03-31T04:25:40.794Z,88.40
2019-03-31T04:28:09.358Z,88.80
2019-03-31T04:30:37.896Z,89.30
2019-03-31T04:33:06.430Z,90.20
2019-03-31T04:35:34.999Z,90.10
2019-03-31T04:38:03.542Z,90.20
2019-03-31T04:40:33.795Z,90.10
2019-03-31T04:43:02.389Z,89.50
2019-03-31T04:45:30.887Z,90.00
2019-03-31T04:47:59.425Z,89.60
2019-03-31T04:50:29.653Z,90.00
2019-03-31T04:52:58.181Z,90.00
2019-03-31T04:55:26.648Z,89.80
2019-03-31T04:57:55.211Z,89.90
2019-03-31T05:00:24.104Z,89.70
2019-03-31T05:02:52.616Z,89.60
2019-03-31T05:05:21.286Z,90.20
2019-03-31T05:07:49.845Z,89.70
2019-03-31T05:10:18.380Z,90.10
2019-03-31T05:12:46.876Z,90.10
2019-03-31T05:15:15.420Z,89.40
2019-03-31T05:17:43.956Z,88.30
2019-03-31T05:20:18.388Z,87.90
2019-03-31T05:22:55.432Z,87.70
2019-03-31T05:25:24.004Z,88.00
2019-03-31T05:27:52.779Z,87.60
2019-03-31T05:30:21.245Z,87.20
2019-03-31T05:32:49.756Z,87.10
2019-03-31T05:35:18.296Z,86.80
2019-03-31T05:37:51.205Z,86.80
2019-03-31T05:40:17.146Z,86.40
2019-03-31T05:42:45.609Z,85.80
2019-03-31T05:45:14.133Z,85.40
2019-03-31T05:47:42.646Z,83.90
2019-03-31T05:50:11.258Z,83.00
2019-03-31T05:52:39.816Z,82.50
2019-03-31T05:55:08.489Z,81.60
2019-03-31T05:57:38.480Z,81.10
2019-03-31T06:00:07.410Z,80.80
2019-03-31T06:02:36.057Z,80.50
2019-03-31T06:05:06.321Z,80.50
2019-03-31T06:07:34.790Z,79.80
2019-03-31T06:10:04.513Z,79.50
2019-03-31T06:12:32.276Z,79.10
2019-03-31T06:17:36.685Z,77.90
2019-03-31T06:20:06.628Z,77.20
2019-03-31T06:22:35.861Z,77.20
2019-03-31T06:25:05.992Z,76.30
2019-03-31T06:27:36.057Z,75.80
2019-03-31T06:30:06.391Z,76.30
2019-03-31T06:32:34.893Z,75.00
2019-03-31T06:35:04.940Z,74.40
2019-03-31T06:37:33.404Z,74.00
2019-03-31T06:40:02.345Z,73.20
2019-03-31T06:42:30.904Z,72.20
2019-03-31T06:44:59.481Z,73.10
2019-03-31T06:47:27.997Z,71.20
2019-03-31T06:49:56.473Z,70.90
2019-03-31T06:52:25.020Z,71.50
2019-03-31T06:54:53.609Z,69.90
2019-03-31T06:57:22.149Z,69.90
2019-03-31T06:59:50.624Z,68.90
2019-03-31T07:02:19.204Z,68.60
2019-03-31T07:05:00.274Z,67.60
2019-03-31T07:07:17.971Z,66.80
2019-03-31T07:09:46.550Z,66.40
2019-03-31T07:12:15.084Z,65.90
2019-03-31T07:14:43.650Z,65.60
2019-03-31T07:17:13.773Z,65.80
2019-03-31T07:19:42.309Z,65.10
2019-03-31T07:22:15.463Z,64.40
2019-03-31T07:24:41.098Z,65.20
2019-03-31T07:27:12.476Z,63.10
2019-03-31T07:29:41.022Z,63.30
2019-03-31T07:32:09.940Z,62.50
2019-03-31T07:34:38.494Z,63.00
2019-03-31T07:37:06.969Z,62.80
2019-03-31T07:39:35.830Z,61.60
2019-03-31T07:42:04.705Z,61.50
2019-03-31T07:44:33.493Z,60.90
2019-03-31T07:47:02.079Z,60.00
2019-03-31T07:49:30.607Z,59.40
2019-03-31T07:51:59.083Z,59.90
2019-03-31T07:54:27.578Z,59.40
2019-03-31T07:56:56.050Z,60.30
2019-03-31T07:59:25.612Z,59.50
2019-03-31T08:01:54.120Z,58.70
2019-03-31T08:04:22.590Z,58.30
2019-03-31T08:06:51.055Z,58.10
2019-03-31T08:09:19.559Z,58.30
2019-03-31T08:11:48.126Z,57.70
2019-03-31T08:14:16.734Z,57.10
2019-03-31T08:16:45.306Z,56.70
2019-03-31T08:19:13.786Z,57.00
2019-03-31T08:21:42.477Z,56.80
2019-03-31T08:24:11.222Z,55.50
2019-03-31T08:26:39.856Z,55.50
2019-03-31T08:29:09.584Z,56.10
2019-03-31T08:31:38.893Z,55.50
2019-03-31T08:34:08.348Z,56.30
2019-03-31T08:36:36.815Z,54.40
2019-03-31T08:39:08.301Z,53.40
2019-03-31T08:41:36.836Z,54.00
2019-03-31T08:44:05.368Z,54.20
2019-03-31T08:46:33.930Z,52.70
2019-03-31T08:49:02.649Z,53.30
2019-03-31T08:51:31.109Z,53.80
2019-03-31T08:53:59.613Z,53.00
2019-03-31T08:56:28.153Z,52.60
2019-03-31T08:58:56.698Z,50.40
2019-03-31T09:01:25.188Z,50.00
2019-03-31T09:03:55.290Z,49.10
2019-03-31T09:06:27.959Z,48.00
2019-03-31T09:09:02.355Z,50.00
2019-03-31T09:11:33.148Z,48.80
2019-03-31T09:14:01.638Z,49.30
2019-03-31T09:16:30.369Z,47.90
2019-03-31T09:18:58.859Z,48.60
2019-03-31T09:21:27.976Z,46.90
2019-03-31T09:23:56.471Z,47.50
2019-03-31T09:26:25.549Z,45.50
2019-03-31T09:31:45.193Z,44.80
2019-03-31T09:34:13.724Z,45.70
2019-03-31T09:36:43.618Z,46.00
2019-03-31T09:42:22.040Z,45.50
2019-03-31T09:44:50.598Z,42.80
2019-03-31T09:47:19.065Z,42.70
2019-03-31T09:49:47.573Z,42.50
2019-03-31T09:52:16.041Z,41.20
2019-03-31T09:54:48.579Z,40.40
2019-03-31T09:57:18.693Z,41.40
2019-03-31T09:59:47.230Z,41.10
2019-03-31T10:02:17.590Z,41.50
2019-03-31T10:04:46.958Z,39.50
2019-03-31T10:07:15.496Z,38.70
2019-03-31T10:09:46.436Z,39.30
2019-03-31T10:12:15.589Z,39.50
2019-03-31T10:14:47.642Z,37.70
2019-03-31T10:17:16.166Z,37.00
2019-03-31T10:19:44.675Z,36.60
2019-03-31T10:22:13.813Z,37.70
2019-03-31T10:24:42.409Z,37.60
2019-03-31T10:27:10.981Z,39.70
2019-03-31T10:29:41.091Z,40.80
2019-03-31T10:32:10.578Z,41.10
2019-03-31T10:34:44.329Z,38.30
2019-03-31T10:37:13.343Z,39.50
2019-03-31T10:39:50.995Z,39.00
2019-03-31T10:42:20.032Z,39.70
2019-03-31T10:44:48.493Z,40.30
2019-03-31T10:47:17.061Z,38.30
2019-03-31T10:52:34.843Z,36.40
2019-03-31T10:55:04.969Z,37.60
2019-03-31T11:00:37.124Z,36.70
2019-03-31T11:03:07.104Z,38.30
2019-03-31T11:08:27.133Z,37.40
2019-03-31T11:10:59.517Z,37.00
2019-03-31T11:16:07.108Z,37.50
2019-03-31T11:18:35.645Z,38.50
2019-03-31T11:21:05.759Z,37.30
2019-03-31T11:23:34.340Z,37.20
2019-03-31T11:26:02.883Z,36.90
2019-03-31T11:28:31.340Z,36.90
2019-03-31T11:30:59.909Z,37.00
2019-03-31T11:33:28.416Z,35.20
2019-03-31T11:35:56.880Z,35.90
2019-03-31T11:38:25.570Z,37.80
2019-03-31T11:40:54.118Z,34.90
2019-03-31T11:43:22.643Z,36.60
2019-03-31T11:45:51.141Z,38.10
2019-03-31T11:48:19.781Z,36.40
2019-03-31T11:50:48.296Z,36.70
2019-03-31T11:53:16.803Z,36.90
2019-03-31T11:55:45.344Z,37.90
2019-03-31T11:58:13.822Z,39.40
2019-03-31T12:00:43.964Z,39.30
2019-03-31T12:03:12.431Z,36.80
2019-03-31T12:05:41.032Z,34.50
2019-03-31T12:08:09.531Z,35.00
2019-03-31T12:10:38.000Z,33.60
2019-03-31T12:13:06.541Z,32.60
2019-03-31T12:15:35.055Z,34.10
2019-03-31T12:18:03.598Z,34.90
2019-03-31T12:20:32.311Z,34.40
2019-03-31T12:23:00.981Z,34.30
2019-03-31T12:25:29.503Z,31.40
2019-03-31T12:27:58.059Z,30.40
2019-03-31T12:30:28.625Z,30.50
2019-03-31T12:32:57.988Z,31.40
2019-03-31T12:35:27.842Z,34.70
2019-03-31T12:37:56.340Z,35.30
2019-03-31T12:40:31.333Z,36.70
2019-03-31T12:43:00.023Z,37.10
2019-03-31T12:45:28.576Z,38.50
2019-03-31T12:47:57.099Z,39.70
2019-03-31T12:50:25.679Z,40.50
2019-03-31T12:52:54.163Z,42.40
2019-03-31T12:55:23.816Z,43.50
2019-03-31T12:57:52.363Z,44.90
2019-03-31T13:00:24.261Z,45.30
2019-03-31T13:02:52.816Z,43.00
2019-03-31T13:05:21.532Z,46.00
2019-03-31T13:07:56.242Z,45.20
2019-03-31T13:10:20.570Z,46.00
2019-03-31T13:12:49.143Z,46.20
2019-03-31T13:15:17.854Z,43.20
2019-03-31T13:17:46.454Z,42.50
2019-03-31T13:20:15.305Z,42.90
2019-03-31T13:22:45.851Z,41.00
2019-03-31T13:25:14.118Z,39.50
2019-03-31T13:27:42.790Z,36.10
2019-03-31T13:30:11.388Z,33.40
2019-03-31T13:32:39.920Z,31.40
2019-03-31T13:35:08.766Z,32.60
2019-03-31T13:37:37.618Z,33.80
2019-03-31T13:40:08.268Z,30.80
2019-03-31T13:42:37.054Z,32.40
2019-03-31T13:45:06.631Z,29.50
2019-03-31T13:47:35.172Z,27.90
2019-03-31T13:50:05.675Z,27.00
2019-03-31T13:52:34.151Z,27.20
2019-03-31T13:55:02.960Z,29.50
2019-03-31T13:57:32.167Z,31.80
2019-03-31T14:00:01.635Z,31.00
2019-03-31T14:02:30.201Z,30.20
2019-03-31T14:04:58.769Z,30.40
2019-03-31T14:07:27.275Z,29.70
2019-03-31T14:09:55.809Z,28.80
2019-03-31T14:12:24.321Z,29.30
2019-03-31T14:14:52.796Z,29.20
2019-03-31T14:17:24.320Z,29.90
2019-03-31T14:19:51.592Z,31.50
2019-03-31T14:22:20.076Z,31.80
2019-03-31T14:24:48.692Z,31.60
2019-03-31T14:27:17.276Z,30.40
2019-03-31T14:29:45.806Z,31.10
2019-03-31T14:32:14.356Z,30.30
2019-03-31T14:34:42.923Z,32.60
2019-03-31T14:37:11.427Z,33.70
2019-03-31T14:39:39.988Z,36.40
2019-03-31T14:42:08.500Z,35.90
2019-03-31T14:44:38.001Z,33.80
2019-03-31T14:47:06.687Z,33.30
2019-03-31T14:52:37.435Z,30.40
2019-03-31T14:55:06.452Z,30.50
2019-03-31T14:57:34.993Z,30.40
2019-03-31T15:00:14.711Z,33.00
2019-03-31T15:02:35.817Z,33.50
2019-03-31T15:05:05.480Z,34.20
2019-03-31T15:07:34.074Z,34.80
2019-03-31T15:10:02.614Z,35.60
2019-03-31T15:12:31.171Z,37.00
2019-03-31T15:14:59.755Z,35.30
2019-03-31T15:17:29.020Z,33.50
2019-03-31T15:19:57.562Z,34.50
2019-03-31T15:22:26.111Z,35.20
2019-03-31T15:24:54.648Z,33.80
2019-03-31T15:27:23.107Z,33.80
2019-03-31T15:29:51.618Z,34.40
2019-03-31T15:32:20.089Z,33.10
2019-03-31T15:34:48.564Z,33.00
2019-03-31T15:37:17.299Z,33.70
2019-03-31T15:39:45.824Z,33.00
2019-03-31T15:42:14.286Z,32.70
2019-03-31T15:44:43.790Z,33.50
2019-03-31T15:47:12.584Z,34.30
2019-03-31T15:49:41.120Z,34.10
2019-03-31T15:52:09.635Z,34.70
2019-03-31T15:54:38.527Z,35.10
2019-03-31T15:57:07.188Z,33.60
2019-03-31T15:59:35.772Z,35.00
2019-03-31T16:02:04.488Z,36.70
2019-03-31T16:04:33.165Z,39.10
2019-03-31T16:07:01.705Z,40.90
2019-03-31T16:09:30.282Z,42.90
2019-03-31T16:11:58.768Z,43.10
2019-03-31T16:14:27.284Z,44.90
2019-03-31T16:16:55.752Z,46.80
2019-03-31T16:19:24.216Z,48.90
2019-03-31T16:21:52.796Z,50.30
2019-03-31T16:24:22.917Z,51.30
2019-03-31T16:26:52.923Z,52.50
2019-03-31T16:29:21.766Z,53.00
2019-03-31T16:31:50.304Z,53.70
2019-03-31T16:34:18.855Z,54.20
2019-03-31T16:36:47.368Z,55.20
2019-03-31T16:39:15.836Z,56.10
2019-03-31T16:41:44.304Z,56.40
2019-03-31T16:44:12.808Z,56.70
2019-03-31T16:46:41.401Z,56.90
2019-03-31T16:49:10.926Z,57.40
2019-03-31T16:51:39.482Z,58.10
2019-03-31T16:54:08.035Z,58.90
2019-03-31T16:56:36.504Z,59.70
2019-03-31T16:59:05.604Z,60.20
2019-03-31T17:01:34.163Z,61.10
2019-03-31T17:04:02.723Z,61.70
2019-03-31T17:06:31.304Z,62.20
2019-03-31T17:08:59.774Z,62.70
2019-03-31T17:11:28.315Z,62.90
2019-03-31T17:13:56.909Z,63.90
2019-03-31T17:16:25.391Z,65.50
2019-03-31T17:18:54.043Z,66.60
2019-03-31T17:21:22.608Z,67.20
2019-03-31T17:23:51.144Z,68.00
2019-03-31T17:26:20.294Z,68.40
2019-03-31T17:28:49.884Z,68.90
2019-03-31T17:31:17.578Z,69.20
2019-03-31T17:33:46.122Z,70.20
2019-03-31T17:36:17.923Z,71.10
2019-03-31T17:38:46.449Z,71.90
2019-03-31T17:41:15.010Z,72.30
2019-03-31T17:43:43.717Z,72.90
2019-03-31T17:46:24.886Z,73.40
2019-03-31T17:48:53.469Z,73.80
2019-03-31T17:51:22.896Z,74.00
2019-03-31T17:53:52.034Z,74.20
2019-03-31T17:56:20.630Z,74.20
2019-03-31T17:58:49.252Z,75.00
2019-03-31T18:01:22.466Z,74.70
2019-03-31T18:03:51.072Z,75.10
2019-03-31T18:06:19.578Z,75.60
2019-03-31T18:08:48.104Z,76.90
2019-03-31T18:11:16.609Z,76.50
2019-03-31T18:13:45.070Z,76.60
2019-03-31T18:16:13.612Z,77.40
2019-03-31T18:18:42.203Z,77.70
2019-03-31T18:21:10.746Z,78.00
2019-03-31T18:23:39.345Z,78.40
2019-03-31T18:26:07.850Z,78.80
2019-03-31T18:28:39.430Z,79.10
2019-03-31T18:31:07.990Z,78.70
2019-03-31T18:33:36.560Z,78.20
2019-03-31T18:36:05.224Z,78.40
2019-03-31T18:38:33.692Z,78.60
2019-03-31T18:41:03.772Z,79.10
2019-03-31T18:43:32.525Z,79.10
2019-03-31T18:46:01.216Z,79.00
2019-03-31T18:48:29.712Z,79.30
2019-03-31T18:50:58.198Z,79.40
2019-03-31T18:53:34.461Z,79.40
2019-03-31T18:56:07.628Z,79.20
2019-03-31T18:58:53.406Z,79.30
2019-03-31T19:01:32.489Z,79.20
2019-03-31T19:04:08.496Z,79.10
2019-03-31T19:06:41.125Z,79.70
2019-03-31T19:09:11.294Z,79.80
2019-03-31T19:11:54.454Z,79.60
2019-03-31T19:14:42.439Z,79.80
2019-03-31T19:17:24.013Z,80.40
2019-03-31T19:19:54.492Z,80.80
2019-03-31T19:22:33.667Z,80.40
2019-03-31T19:25:03.768Z,80.80
2019-03-31T19:27:49.982Z,80.70
2019-03-31T19:30:20.241Z,80.90
2019-03-31T19:32:59.029Z,81.20
2019-03-31T19:35:45.496Z,80.50
2019-03-31T19:38:18.420Z,80.60
2019-03-31T19:41:04.719Z,80.90
2019-03-31T19:43:38.023Z,80.80
2019-03-31T19:46:14.341Z,81.00
2019-03-31T19:49:06.205Z,81.80
2019-03-31T19:52:06.567Z,81.20
2019-03-31T19:54:49.274Z,81.70
2019-03-31T19:57:21.865Z,81.90
2019-03-31T19:59:58.527Z,82.20
2019-03-31T20:02:33.359Z,82.30
2019-03-31T20:05:07.122Z,82.00
2019-03-31T20:07:56.127Z,81.40
2019-03-31T20:10:45.226Z,81.70
2019-03-31T20:13:31.106Z,81.60
2019-03-31T20:16:17.355Z,81.60
2019-03-31T20:18:53.115Z,82.00
2019-03-31T20:21:31.830Z,81.70
2019-03-31T20:24:12.590Z,81.90
2019-03-31T20:27:01.937Z,81.70
2019-03-31T20:29:36.337Z,82.00
2019-03-31T20:32:09.085Z,82.30
2019-03-31T20:37:46.400Z,82.70
2019-03-31T20:40:19.227Z,83.10
2019-03-31T20:43:05.939Z,84.30
2019-03-31T20:45:34.549Z,84.20
2019-03-31T20:48:03.010Z,85.00
2019-03-31T20:50:31.524Z,85.50
2019-03-31T20:52:59.984Z,85.80
2019-03-31T20:55:28.638Z,86.20
2019-03-31T20:57:57.378Z,86.10
2019-03-31T21:00:25.990Z,86.10
2019-03-31T21:02:54.567Z,86.40
2019-03-31T21:05:23.068Z,86.20
2019-03-31T21:07:51.525Z,86.90
2019-03-31T21:10:19.997Z,86.30
2019-03-31T21:12:48.578Z,85.80
2019-03-31T21:15:17.036Z,85.50
2019-03-31T21:17:45.569Z,85.60
2019-03-31T21:20:14.219Z,85.90
2019-03-31T21:22:42.771Z,85.50
2019-03-31T21:25:13.743Z,85.20
2019-03-31T21:27:41.536Z,84.90
2019-03-31T21:30:10.224Z,85.30
2019-03-31T21:32:38.764Z,85.50
2019-03-31T21:35:07.501Z,86.10
2019-03-31T21:37:36.429Z,86.10
2019-03-31T21:40:07.026Z,86.20
2019-03-31T21:42:35.521Z,86.60
2019-03-31T21:45:05.921Z,86.10
2019-03-31T21:47:34.384Z,86.30
2019-03-31T21:50:03.241Z,86.00
2019-03-31T21:52:31.701Z,86.10
2019-03-31T21:55:00.424Z,85.70
2019-03-31T21:57:29.482Z,86.10
2019-03-31T21:59:58.017Z,85.60
2019-03-31T22:02:26.488Z,86.40
2019-03-31T22:04:55.071Z,87.00
2019-03-31T22:07:23.605Z,87.50
2019-03-31T22:09:52.064Z,87.50
2019-03-31T22:12:20.640Z,87.90
2019-03-31T22:14:49.108Z,88.10
2019-03-31T22:17:17.571Z,87.60
2019-03-31T22:19:46.141Z,87.50
2019-03-31T22:22:14.606Z,87.50
2019-03-31T22:24:43.065Z,86.90
2019-03-31T22:27:11.617Z,86.70
2019-03-31T22:29:40.169Z,85.70
2019-03-31T22:32:08.747Z,85.00
2019-03-31T22:34:37.242Z,84.50
2019-03-31T22:37:05.710Z,84.40
2019-03-31T22:39:34.180Z,83.80
2019-03-31T22:42:02.771Z,84.50
2019-03-31T22:44:31.353Z,84.50
2019-03-31T22:46:59.816Z,85.00
2019-03-31T22:49:28.414Z,84.90
2019-03-31T22:52:16.213Z,85.50
2019-03-31T22:54:44.712Z,85.40
2019-03-31T22:57:13.352Z,85.80
2019-03-31T22:59:42.436Z,86.50
2019-03-31T23:02:11.008Z,86.40
2019-03-31T23:04:39.477Z,86.10
2019-03-31T23:07:08.060Z,86.30
2019-03-31T23:09:36.628Z,86.70
2019-03-31T23:12:05.106Z,86.80
2019-03-31T23:14:33.582Z,86.90
2019-03-31T23:17:02.192Z,86.90
2019-03-31T23:19:30.685Z,86.90
2019-03-31T23:21:59.195Z,87.20
2019-03-31T23:24:27.763Z,87.20
2019-03-31T23:26:56.300Z,86.90
2019-03-31T23:29:24.836Z,87.10
2019-03-31T23:31:53.337Z,86.90
2019-03-31T23:34:21.883Z,87.00
2019-03-31T23:36:50.432Z,87.00
2019-03-31T23:39:18.996Z,86.40
2019-03-31T23:41:47.458Z,86.20
2019-03-31T23:44:15.988Z,86.60
2019-03-31T23:46:44.496Z,86.50
2019-03-31T23:49:13.030Z,86.90
2019-03-31T23:51:41.567Z,86.30
2019-03-31T23:54:10.056Z,86.20
2019-03-31T23:56:38.519Z,86.00
2019-03-31T23:59:06.977Z,85.80
